Avant, Oklahoma
Current Conditions -  °F | °C
As of 3:53 PM on Wednesday 28 Jan 2015 (Local Time) from KBVO Reporting Station
Clear Clear  
Wind Chill: 26°   Ceiling: Unl
Heat Index: 26°   Visibility: 10mi
Dew Point:   Wind: 13mph
Humidity: 25%   Direction: 190°S
Pressure: 29.81"   Gusts: 24mph
Location:  36.49°N, 96.06°W
Report Text: KBVO 282153Z AUTO 19011G21KT 10SM CLR 26/04 A2981 RMK AO2 SLP088 T02560039
Loading
Personal Weather Stations






























Interactive Weather Map New forecast layout! Learn more

10-Day Weather Forecast

Advertisements
Track Severe Weather on mobile